Time;durP1;ratioP1;P1;durP2;ratioP2;P2;SDS_P1;SDS_P2;PMS_P1;PMS_P2;Temp;Humidity;BMP_temperature;BMP_pressure;BME280_temperature;BME280_humidity;BME280_pressure;Samples;Min_cycle;Max_cycle;Signal;HPM_P1;HPM_P2
2022/03/13 00:02:15;;;;;;;16.47;11.13;;;;;;;;;;6200572;23;20386;-52
2022/03/13 00:04:42;;;;;;;18.30;11.30;;;;;;;;;;6202890;23;20877;-52
2022/03/13 00:07:19;;;;;;;26.37;11.83;;;;;;;;;;6203122;23;20383;-52
2022/03/13 00:09:48;;;;;;;17.70;10.70;;;;;;;;;;6202296;23;20893;-52
2022/03/13 00:12:15;;;;;;;18.17;11.90;;;;;;;;;;6199644;23;20368;-51
2022/03/13 00:14:42;;;;;;;19.00;12.00;;;;;;;;;;6202182;23;20717;-52
2022/03/13 00:17:08;;;;;;;20.33;11.13;;;;;;;;;;6203118;23;20419;-52
2022/03/13 00:19:34;;;;;;;21.50;12.77;;;;;;;;;;6202177;23;20383;-52
2022/03/13 00:22:00;;;;;;;20.90;10.20;;;;;;;;;;6202623;23;20445;-53
2022/03/13 00:24:27;;;;;;;12.00;9.93;;;;;;;;;;6201987;23;20568;-52
2022/03/13 00:26:54;;;;;;;12.73;10.10;;;;;;;;;;6201677;23;20375;-51
2022/03/13 00:29:20;;;;;;;19.63;12.77;;;;;;;;;;6203913;23;20367;-52
2022/03/13 00:31:46;;;;;;;17.07;11.30;;;;;;;;;;6203402;23;20371;-52
2022/03/13 00:34:13;;;;;;;13.87;9.70;;;;;;;;;;6204039;23;20380;-51
2022/03/13 00:36:39;;;;;;;17.40;12.20;;;;;;;;;;6204826;23;20375;-52
2022/03/13 00:39:06;;;;;;;12.67;9.60;;;;;;;;;;6203836;23;20470;-52
2022/03/13 00:41:32;;;;;;;16.50;10.43;;;;;;;;;;6201246;23;20403;-53
2022/03/13 00:43:58;;;;;;;14.17;10.03;;;;;;;;;;6203362;23;20379;-59
2022/03/13 00:46:24;;;;;;;17.37;11.70;;;;;;;;;;6202939;23;20467;-52
2022/03/13 00:48:49;;;;;;;16.60;10.47;;;;;;;;;;6202742;23;20368;-52
2022/03/13 00:51:16;;;;;;;19.27;11.80;;;;;;;;;;6202757;23;20921;-54
2022/03/13 00:53:42;;;;;;;19.27;11.53;;;;;;;;;;6202321;23;20376;-53
2022/03/13 00:56:08;;;;;;;16.03;9.80;;;;;;;;;;6203054;23;20394;-53
2022/03/13 00:58:34;;;;;;;18.40;11.20;;;;;;;;;;6202098;23;20550;-52
2022/03/13 01:01:00;;;;;;;14.07;10.27;;;;;;;;;;6202588;23;20387;-52
2022/03/13 01:03:35;;;;;;;17.53;10.20;;;;;;;;;;6200973;23;20449;-52
2022/03/13 01:06:01;;;;;;;12.57;9.33;;;;;;;;;;6202711;23;20905;-52
2022/03/13 01:08:27;;;;;;;16.10;10.00;;;;;;;;;;6200713;23;20371;-52
2022/03/13 01:10:53;;;;;;;13.87;10.20;;;;;;;;;;6203357;23;20368;-52
2022/03/13 01:13:19;;;;;;;16.30;10.97;;;;;;;;;;6201412;23;20368;-53
2022/03/13 01:15:46;;;;;;;14.93;11.23;;;;;;;;;;6203456;23;20376;-52
2022/03/13 01:18:12;;;;;;;18.17;10.37;;;;;;;;;;6204074;23;20430;-52
2022/03/13 01:20:38;;;;;;;16.67;10.73;;;;;;;;;;6204376;23;20778;-52
2022/03/13 01:23:04;;;;;;;15.20;9.30;;;;;;;;;;6202156;23;20368;-53
2022/03/13 01:25:30;;;;;;;19.17;10.57;;;;;;;;;;6200787;23;20415;-53
2022/03/13 01:27:56;;;;;;;12.70;9.37;;;;;;;;;;6201325;23;20403;-52
2022/03/13 01:30:22;;;;;;;23.10;10.80;;;;;;;;;;6200698;23;20214;-56
2022/03/13 01:32:51;;;;;;;14.57;10.13;;;;;;;;;;6202409;23;20376;-54
2022/03/13 01:35:21;;;;;;;14.07;9.90;;;;;;;;;;6200353;23;20395;-53
2022/03/13 01:37:47;;;;;;;16.60;10.30;;;;;;;;;;6199224;23;20435;-51
2022/03/13 01:40:19;;;;;;;17.20;11.03;;;;;;;;;;6201953;23;20455;-52
2022/03/13 01:42:47;;;;;;;18.57;11.43;;;;;;;;;;6201731;23;20417;-52
2022/03/13 01:45:15;;;;;;;14.47;9.03;;;;;;;;;;6202588;23;20881;-52
2022/03/13 01:47:41;;;;;;;16.07;9.53;;;;;;;;;;6201083;23;20399;-52
2022/03/13 01:50:09;;;;;;;16.90;10.30;;;;;;;;;;6202204;23;20372;-51
2022/03/13 01:52:35;;;;;;;17.83;10.87;;;;;;;;;;6200490;23;20375;-52
2022/03/13 01:55:02;;;;;;;19.83;10.73;;;;;;;;;;6200904;23;20811;-52
2022/03/13 01:57:28;;;;;;;15.77;8.80;;;;;;;;;;6199710;23;20431;-51
2022/03/13 01:59:55;;;;;;;20.20;11.97;;;;;;;;;;6201189;23;20373;-52
2022/03/13 02:02:22;;;;;;;15.83;10.63;;;;;;;;;;6200785;23;20961;-52
2022/03/13 02:04:54;;;;;;;21.30;11.00;;;;;;;;;;6202863;23;20914;-52
2022/03/13 02:07:21;;;;;;;15.53;9.27;;;;;;;;;;6199617;23;20494;-52
2022/03/13 02:09:47;;;;;;;18.00;10.27;;;;;;;;;;6201208;23;20395;-52
2022/03/13 02:12:14;;;;;;;15.67;9.03;;;;;;;;;;6200717;23;20379;-52
2022/03/13 02:14:39;;;;;;;13.67;8.40;;;;;;;;;;6201998;23;20508;-52
2022/03/13 02:17:05;;;;;;;18.10;11.80;;;;;;;;;;6201451;23;20406;-54
2022/03/13 02:19:31;;;;;;;13.70;8.80;;;;;;;;;;6201790;23;20422;-52
2022/03/13 02:21:57;;;;;;;9.37;7.03;;;;;;;;;;6200337;23;20157;-55
2022/03/13 02:24:24;;;;;;;16.63;9.30;;;;;;;;;;6202262;23;20375;-54
2022/03/13 02:26:56;;;;;;;12.53;9.13;;;;;;;;;;6202752;23;20375;-56
2022/03/13 02:29:22;;;;;;;17.60;10.13;;;;;;;;;;6203098;23;20863;-53
2022/03/13 02:31:48;;;;;;;14.10;9.40;;;;;;;;;;6200581;23;20458;-53
2022/03/13 02:34:14;;;;;;;15.13;8.20;;;;;;;;;;6203210;23;20438;-52
2022/03/13 02:36:46;;;;;;;15.80;9.20;;;;;;;;;;6202600;23;20403;-53
2022/03/13 02:39:12;;;;;;;13.13;8.67;;;;;;;;;;6202380;23;21249;-52
2022/03/13 02:41:40;;;;;;;11.40;8.27;;;;;;;;;;6201890;23;20375;-52
2022/03/13 02:44:07;;;;;;;12.10;8.83;;;;;;;;;;6203376;23;21415;-52
2022/03/13 02:46:51;;;;;;;20.20;10.23;;;;;;;;;;6203616;23;20376;-53
2022/03/13 02:49:19;;;;;;;12.67;8.50;;;;;;;;;;6204396;23;20364;-53
2022/03/13 02:51:45;;;;;;;11.13;7.47;;;;;;;;;;6202459;23;20375;-53
2022/03/13 02:54:11;;;;;;;15.40;8.63;;;;;;;;;;6203078;23;20470;-53
2022/03/13 02:56:37;;;;;;;15.57;8.73;;;;;;;;;;6203039;23;20414;-52
2022/03/13 02:59:03;;;;;;;18.60;10.10;;;;;;;;;;6200520;23;21070;-53
2022/03/13 03:01:29;;;;;;;12.40;7.30;;;;;;;;;;6200534;23;20387;-53
2022/03/13 03:04:01;;;;;;;12.43;9.10;;;;;;;;;;6201253;23;20378;-53
2022/03/13 03:06:30;;;;;;;12.23;8.70;;;;;;;;;;6201404;23;20375;-52
2022/03/13 03:08:56;;;;;;;16.47;9.10;;;;;;;;;;6202978;23;21151;-52
2022/03/13 03:11:22;;;;;;;14.80;8.83;;;;;;;;;;6200141;23;20403;-53
2022/03/13 03:13:48;;;;;;;14.40;8.33;;;;;;;;;;6200135;23;20394;-52
2022/03/13 03:16:14;;;;;;;10.07;7.70;;;;;;;;;;6203590;23;20526;-52
2022/03/13 03:18:40;;;;;;;19.57;9.53;;;;;;;;;;6202808;23;20435;-52
2022/03/13 03:21:07;;;;;;;13.67;8.90;;;;;;;;;;6203963;23;20363;-53
2022/03/13 03:23:33;;;;;;;14.87;9.60;;;;;;;;;;6203464;23;20379;-53
2022/03/13 03:25:59;;;;;;;15.57;8.60;;;;;;;;;;6206207;23;20433;-53
2022/03/13 03:28:25;;;;;;;13.33;7.83;;;;;;;;;;6204880;23;20560;-52
2022/03/13 03:30:51;;;;;;;12.57;8.20;;;;;;;;;;6206088;23;20395;-52
2022/03/13 03:33:17;;;;;;;14.17;8.80;;;;;;;;;;6207694;23;21249;-53
2022/03/13 03:35:43;;;;;;;14.70;8.30;;;;;;;;;;6210457;23;20364;-53
2022/03/13 03:38:11;;;;;;;12.53;8.13;;;;;;;;;;6206698;23;21220;-52
2022/03/13 03:40:37;;;;;;;17.30;8.80;;;;;;;;;;6208394;23;20483;-51
2022/03/13 03:43:03;;;;;;;13.77;8.40;;;;;;;;;;6206928;23;20403;-53
2022/03/13 03:45:31;;;;;;;15.87;8.60;;;;;;;;;;6207645;23;20387;-52
2022/03/13 03:47:57;;;;;;;15.97;7.70;;;;;;;;;;6206500;23;20368;-52
2022/03/13 03:50:23;;;;;;;13.50;8.50;;;;;;;;;;6205253;23;20767;-53
2022/03/13 03:52:51;;;;;;;15.17;8.13;;;;;;;;;;6205041;23;20372;-52
2022/03/13 03:55:17;;;;;;;12.83;8.63;;;;;;;;;;6207285;23;20364;-53
2022/03/13 03:57:43;;;;;;;15.33;8.77;;;;;;;;;;6205602;23;20996;-52
2022/03/13 04:00:10;;;;;;;13.13;8.60;;;;;;;;;;6199432;23;20367;-53
2022/03/13 04:02:36;;;;;;;18.30;8.90;;;;;;;;;;6203391;23;20406;-52
2022/03/13 04:05:03;;;;;;;13.50;8.93;;;;;;;;;;6203727;23;20380;-53
2022/03/13 04:07:30;;;;;;;18.33;10.20;;;;;;;;;;6202972;23;20680;-52
2022/03/13 04:09:57;;;;;;;14.47;7.67;;;;;;;;;;6202966;23;21093;-52
2022/03/13 04:12:23;;;;;;;13.90;9.07;;;;;;;;;;6202040;23;20390;-53
2022/03/13 04:14:49;;;;;;;17.00;9.33;;;;;;;;;;6202608;23;20502;-52
2022/03/13 04:17:15;;;;;;;13.10;8.80;;;;;;;;;;6203123;23;20482;-52
2022/03/13 04:19:41;;;;;;;18.60;9.47;;;;;;;;;;6201811;23;20383;-53
2022/03/13 04:22:06;;;;;;;21.37;9.30;;;;;;;;;;6201269;23;20215;-53
2022/03/13 04:24:32;;;;;;;19.47;11.23;;;;;;;;;;6203145;23;20422;-52
2022/03/13 04:27:00;;;;;;;13.77;8.67;;;;;;;;;;6201919;23;20403;-52
2022/03/13 04:29:26;;;;;;;13.73;8.70;;;;;;;;;;6203323;23;20375;-52
2022/03/13 04:31:54;;;;;;;17.90;9.70;;;;;;;;;;6201318;23;20854;-52
2022/03/13 04:34:20;;;;;;;17.10;8.30;;;;;;;;;;6202549;23;20367;-53
2022/03/13 04:36:46;;;;;;;17.17;10.10;;;;;;;;;;6204754;23;20903;-52
2022/03/13 04:39:12;;;;;;;14.67;8.33;;;;;;;;;;6200991;23;20497;-53
2022/03/13 04:41:38;;;;;;;16.17;9.70;;;;;;;;;;6202018;23;20467;-52
2022/03/13 04:44:05;;;;;;;13.00;9.47;;;;;;;;;;6203049;23;20931;-53
2022/03/13 04:46:32;;;;;;;14.03;10.13;;;;;;;;;;6204685;23;20372;-53
2022/03/13 04:48:58;;;;;;;15.23;9.13;;;;;;;;;;6203059;23;20372;-52
2022/03/13 04:51:24;;;;;;;17.17;10.50;;;;;;;;;;6201761;23;20407;-53
2022/03/13 04:53:50;;;;;;;18.37;10.90;;;;;;;;;;6201807;23;20439;-54
2022/03/13 04:56:16;;;;;;;16.97;10.03;;;;;;;;;;6202381;23;20425;-52
2022/03/13 04:58:42;;;;;;;17.47;9.70;;;;;;;;;;6201690;23;20427;-53
2022/03/13 05:01:08;;;;;;;15.87;9.97;;;;;;;;;;6200651;23;21259;-52
2022/03/13 05:03:34;;;;;;;20.00;10.63;;;;;;;;;;6198785;23;20418;-52
2022/03/13 05:06:03;;;;;;;20.30;9.93;;;;;;;;;;6202419;23;20371;-52
2022/03/13 05:08:29;;;;;;;14.00;9.83;;;;;;;;;;6202646;23;20379;-57
2022/03/13 05:10:55;;;;;;;16.50;9.20;;;;;;;;;;6202002;23;20954;-52
2022/03/13 05:13:23;;;;;;;16.17;9.17;;;;;;;;;;6198859;23;20186;-52
2022/03/13 05:15:49;;;;;;;11.00;7.77;;;;;;;;;;6201075;23;20147;-52
2022/03/13 05:18:15;;;;;;;13.90;9.40;;;;;;;;;;6202379;23;21266;-53
2022/03/13 05:20:41;;;;;;;20.20;11.77;;;;;;;;;;6202249;23;20367;-53
2022/03/13 05:23:08;;;;;;;14.70;8.80;;;;;;;;;;6199862;23;20726;-52
2022/03/13 05:25:35;;;;;;;18.90;9.07;;;;;;;;;;6200962;23;20371;-53
2022/03/13 05:28:00;;;;;;;17.93;10.23;;;;;;;;;;6200881;23;20453;-56
2022/03/13 05:30:26;;;;;;;13.80;8.63;;;;;;;;;;6202310;23;20383;-50
2022/03/13 05:32:52;;;;;;;14.47;9.97;;;;;;;;;;6201410;23;20384;-52
2022/03/13 05:35:18;;;;;;;13.03;8.90;;;;;;;;;;6201383;23;20384;-52
2022/03/13 05:37:45;;;;;;;15.67;10.27;;;;;;;;;;6200724;23;20198;-53
2022/03/13 05:40:14;;;;;;;22.60;10.90;;;;;;;;;;6202312;23;20389;-52
2022/03/13 05:42:44;;;;;;;21.93;10.63;;;;;;;;;;6200889;23;20379;-52
2022/03/13 05:45:10;;;;;;;17.17;10.63;;;;;;;;;;6201039;23;20356;-51
2022/03/13 05:47:46;;;;;;;17.93;10.37;;;;;;;;;;6202150;23;20380;-52
2022/03/13 05:50:13;;;;;;;15.80;9.13;;;;;;;;;;6201900;23;20455;-53
2022/03/13 05:52:39;;;;;;;18.07;10.30;;;;;;;;;;6201495;23;20424;-51
2022/03/13 05:55:05;;;;;;;19.50;10.50;;;;;;;;;;6199807;23;20375;-53
2022/03/13 05:57:31;;;;;;;16.30;8.20;;;;;;;;;;6200992;23;20427;-53
2022/03/13 05:59:57;;;;;;;18.00;11.43;;;;;;;;;;6201828;23;20938;-53
2022/03/13 06:02:23;;;;;;;18.50;11.33;;;;;;;;;;6197230;23;20452;-53
2022/03/13 06:04:51;;;;;;;19.40;11.50;;;;;;;;;;6202465;23;20874;-52
2022/03/13 06:07:17;;;;;;;19.70;10.73;;;;;;;;;;6202178;23;20491;-53
2022/03/13 06:09:43;;;;;;;13.33;10.23;;;;;;;;;;6203431;23;20399;-52
2022/03/13 06:12:09;;;;;;;17.80;11.73;;;;;;;;;;6201154;23;20375;-53
2022/03/13 06:14:36;;;;;;;26.73;12.70;;;;;;;;;;6200567;23;20387;-54
2022/03/13 06:17:02;;;;;;;19.40;11.37;;;;;;;;;;6201916;23;20418;-52
2022/03/13 06:19:28;;;;;;;17.07;11.47;;;;;;;;;;6202028;23;21083;-54
2022/03/13 06:21:54;;;;;;;19.43;11.00;;;;;;;;;;6200396;23;20382;-53
2022/03/13 06:24:21;;;;;;;22.30;11.63;;;;;;;;;;6201905;23;20825;-53
2022/03/13 06:26:47;;;;;;;17.60;10.20;;;;;;;;;;6200714;23;20371;-52
2022/03/13 06:29:14;;;;;;;15.27;10.73;;;;;;;;;;6196286;23;20413;-53
2022/03/13 06:31:41;;;;;;;19.00;11.40;;;;;;;;;;6199572;23;20485;-54
2022/03/13 06:34:07;;;;;;;33.23;12.80;;;;;;;;;;6200125;23;20376;-57
2022/03/13 06:36:34;;;;;;;23.17;11.57;;;;;;;;;;6201752;23;20726;-53
2022/03/13 06:39:00;;;;;;;19.90;12.53;;;;;;;;;;6201020;23;20500;-52
2022/03/13 06:41:26;;;;;;;22.07;12.50;;;;;;;;;;6201292;23;20371;-53
2022/03/13 06:43:53;;;;;;;20.73;12.07;;;;;;;;;;6199282;23;20795;-54
2022/03/13 06:46:18;;;;;;;16.00;10.50;;;;;;;;;;6202270;23;20457;-53
2022/03/13 06:48:44;;;;;;;22.20;13.13;;;;;;;;;;6202312;23;20379;-52
2022/03/13 06:51:10;;;;;;;16.07;11.00;;;;;;;;;;6202378;23;21159;-52
2022/03/13 06:53:36;;;;;;;17.20;11.07;;;;;;;;;;6198992;23;20781;-53
2022/03/13 06:56:03;;;;;;;19.03;12.20;;;;;;;;;;6202104;23;21266;-52
2022/03/13 06:58:29;;;;;;;17.93;11.47;;;;;;;;;;6200867;23;20462;-52
2022/03/13 07:00:55;;;;;;;18.37;11.53;;;;;;;;;;6201860;23;21009;-53
2022/03/13 07:03:20;;;;;;;15.70;10.90;;;;;;;;;;6201207;23;20379;-53
2022/03/13 07:05:47;;;;;;;18.50;12.57;;;;;;;;;;6201985;23;20371;-52
2022/03/13 07:08:13;;;;;;;17.83;11.90;;;;;;;;;;6203210;23;20153;-52
2022/03/13 07:10:39;;;;;;;20.57;11.47;;;;;;;;;;6203687;23;20371;-53
2022/03/13 07:13:05;;;;;;;18.87;11.07;;;;;;;;;;6201282;23;20374;-53
2022/03/13 07:15:32;;;;;;;21.23;12.97;;;;;;;;;;6204816;23;20376;-52
2022/03/13 07:17:58;;;;;;;22.93;12.83;;;;;;;;;;6203466;23;20443;-53
2022/03/13 07:20:24;;;;;;;19.73;11.17;;;;;;;;;;6204212;23;20391;-54
2022/03/13 07:22:50;;;;;;;20.47;12.57;;;;;;;;;;6203125;23;20677;-53
2022/03/13 07:25:16;;;;;;;15.40;11.43;;;;;;;;;;6202147;23;20470;-52
2022/03/13 07:27:42;;;;;;;18.03;12.43;;;;;;;;;;6202440;23;20402;-53
2022/03/13 07:30:09;;;;;;;18.77;12.00;;;;;;;;;;6204080;23;20368;-53
2022/03/13 07:32:35;;;;;;;21.63;11.43;;;;;;;;;;6203366;23;20367;-53
2022/03/13 07:35:01;;;;;;;23.40;13.10;;;;;;;;;;6203481;23;20466;-52
2022/03/13 07:37:27;;;;;;;18.03;12.33;;;;;;;;;;6203802;23;20638;-52
2022/03/13 07:39:53;;;;;;;19.57;11.40;;;;;;;;;;6198747;23;20861;-52
2022/03/13 07:42:19;;;;;;;22.30;13.67;;;;;;;;;;6199333;23;20423;-59
2022/03/13 07:44:45;;;;;;;17.77;12.40;;;;;;;;;;6201841;23;20375;-52
2022/03/13 07:47:11;;;;;;;17.07;13.17;;;;;;;;;;6202277;23;20368;-52
2022/03/13 07:49:37;;;;;;;16.63;12.73;;;;;;;;;;6202527;23;20379;-52
2022/03/13 07:52:04;;;;;;;19.80;13.90;;;;;;;;;;6202778;23;20467;-52
2022/03/13 07:54:30;;;;;;;19.83;13.17;;;;;;;;;;6201444;23;20402;-51
2022/03/13 07:56:55;;;;;;;20.07;13.20;;;;;;;;;;6203000;23;20372;-52
2022/03/13 07:59:22;;;;;;;18.63;13.63;;;;;;;;;;6203270;23;20474;-52
2022/03/13 08:01:48;;;;;;;18.53;12.13;;;;;;;;;;6201156;23;20194;-52
2022/03/13 08:04:14;;;;;;;26.00;13.93;;;;;;;;;;6204555;23;20398;-52
2022/03/13 08:06:40;;;;;;;21.40;13.80;;;;;;;;;;6201739;23;20725;-52
2022/03/13 08:09:07;;;;;;;28.23;14.90;;;;;;;;;;6203998;23;20372;-51
2022/03/13 08:11:34;;;;;;;24.33;13.67;;;;;;;;;;6201627;23;20417;-52
2022/03/13 08:14:01;;;;;;;23.27;13.63;;;;;;;;;;6201854;23;20383;-52
2022/03/13 08:16:27;;;;;;;20.40;13.03;;;;;;;;;;6202573;23;20442;-52
2022/03/13 08:18:53;;;;;;;19.43;13.20;;;;;;;;;;6203335;23;20961;-51
2022/03/13 08:21:19;;;;;;;23.57;13.30;;;;;;;;;;6201987;23;20391;-51
2022/03/13 08:23:45;;;;;;;19.87;13.87;;;;;;;;;;6203247;23;20426;-51
2022/03/13 08:26:12;;;;;;;21.60;13.97;;;;;;;;;;6203745;23;20375;-52
2022/03/13 08:28:38;;;;;;;23.57;13.20;;;;;;;;;;6201785;23;20768;-52
2022/03/13 08:31:04;;;;;;;25.27;13.53;;;;;;;;;;6204491;23;20905;-53
2022/03/13 08:33:30;;;;;;;17.77;13.10;;;;;;;;;;6203253;23;20371;-53
2022/03/13 08:35:56;;;;;;;20.30;13.97;;;;;;;;;;6204149;23;20846;-52
2022/03/13 08:38:22;;;;;;;19.90;12.70;;;;;;;;;;6201925;23;20924;-54
2022/03/13 08:40:48;;;;;;;24.93;13.33;;;;;;;;;;6202506;23;20371;-54
2022/03/13 08:43:14;;;;;;;21.03;13.10;;;;;;;;;;6201764;23;20375;-53
2022/03/13 08:45:40;;;;;;;17.73;12.10;;;;;;;;;;6201856;23;20778;-52
2022/03/13 08:48:06;;;;;;;20.97;13.83;;;;;;;;;;6202135;23;20905;-53
2022/03/13 08:50:32;;;;;;;19.10;12.80;;;;;;;;;;6199578;23;20430;-53
2022/03/13 08:52:58;;;;;;;22.17;13.17;;;;;;;;;;6198499;23;20366;-52
2022/03/13 08:55:24;;;;;;;18.20;12.70;;;;;;;;;;6202204;23;20922;-52
2022/03/13 08:57:50;;;;;;;21.33;13.37;;;;;;;;;;6200352;23;20427;-53
2022/03/13 09:00:18;;;;;;;18.30;12.90;;;;;;;;;;6203109;23;20881;-52
2022/03/13 09:02:44;;;;;;;26.27;14.63;;;;;;;;;;6200537;23;20547;-53
2022/03/13 09:05:10;;;;;;;22.83;14.37;;;;;;;;;;6200195;23;20482;-55
2022/03/13 09:07:36;;;;;;;17.90;11.90;;;;;;;;;;6201906;23;20380;-55
2022/03/13 09:10:07;;;;;;;25.97;15.23;;;;;;;;;;6204085;23;20788;-54
2022/03/13 09:12:34;;;;;;;22.40;13.97;;;;;;;;;;6202310;23;20959;-55
2022/03/13 09:15:00;;;;;;;22.00;14.50;;;;;;;;;;6203409;23;20364;-54
2022/03/13 09:17:26;;;;;;;18.97;13.70;;;;;;;;;;6203373;23;20427;-54
2022/03/13 09:19:52;;;;;;;22.80;14.77;;;;;;;;;;6201506;23;20408;-55
2022/03/13 09:22:18;;;;;;;16.27;12.30;;;;;;;;;;6203071;23;20444;-55
2022/03/13 09:24:47;;;;;;;22.10;13.90;;;;;;;;;;6202727;23;20367;-54
2022/03/13 09:27:13;;;;;;;23.07;13.30;;;;;;;;;;6202081;23;20403;-55
2022/03/13 09:29:39;;;;;;;21.57;14.93;;;;;;;;;;6202263;23;20394;-55
2022/03/13 09:32:06;;;;;;;18.90;12.80;;;;;;;;;;6201378;23;20716;-54
2022/03/13 09:34:32;;;;;;;21.77;13.80;;;;;;;;;;6202103;23;21384;-54
2022/03/13 09:36:59;;;;;;;20.33;13.70;;;;;;;;;;6201965;23;20869;-53
2022/03/13 09:39:29;;;;;;;20.63;13.93;;;;;;;;;;6203130;23;20427;-54
2022/03/13 09:41:56;;;;;;;19.23;12.60;;;;;;;;;;6201325;23;20399;-54
2022/03/13 09:44:24;;;;;;;25.43;15.67;;;;;;;;;;6202773;23;20386;-54
2022/03/13 09:46:50;;;;;;;18.33;14.77;;;;;;;;;;6203212;23;20388;-54
2022/03/13 09:49:17;;;;;;;21.63;13.70;;;;;;;;;;6203272;23;20482;-56
2022/03/13 09:51:43;;;;;;;19.50;14.23;;;;;;;;;;6202811;23;20161;-55
2022/03/13 09:54:09;;;;;;;20.63;13.60;;;;;;;;;;6203139;23;20381;-54
2022/03/13 09:56:38;;;;;;;19.77;14.67;;;;;;;;;;6200710;23;21138;-55
2022/03/13 09:59:04;;;;;;;18.53;13.10;;;;;;;;;;6202571;23;20435;-55
2022/03/13 10:01:29;;;;;;;18.40;13.80;;;;;;;;;;6202163;23;20399;-53
2022/03/13 10:03:55;;;;;;;22.03;14.70;;;;;;;;;;6203441;23;20371;-55
2022/03/13 10:06:22;;;;;;;17.00;13.43;;;;;;;;;;6203191;23;20839;-54
2022/03/13 10:08:47;;;;;;;21.97;15.30;;;;;;;;;;6203108;23;20403;-55
2022/03/13 10:11:14;;;;;;;28.97;14.87;;;;;;;;;;6201030;23;20406;-53
2022/03/13 10:13:41;;;;;;;20.87;13.70;;;;;;;;;;6201596;23;20383;-55
2022/03/13 10:16:20;;;;;;;19.30;14.47;;;;;;;;;;6202353;23;20384;-54
2022/03/13 10:18:46;;;;;;;21.50;14.60;;;;;;;;;;6201459;23;20924;-54
2022/03/13 10:21:13;;;;;;;18.63;13.73;;;;;;;;;;6201565;23;20382;-54
2022/03/13 10:23:40;;;;;;;21.27;13.77;;;;;;;;;;6202666;23;20368;-55
2022/03/13 10:26:06;;;;;;;22.40;16.30;;;;;;;;;;6202856;23;20391;-54
2022/03/13 10:28:33;;;;;;;20.63;14.07;;;;;;;;;;6202309;23;20371;-55
2022/03/13 10:30:58;;;;;;;22.60;15.63;;;;;;;;;;6203565;23;20372;-55
2022/03/13 10:33:29;;;;;;;19.93;13.57;;;;;;;;;;6202356;23;20869;-55
2022/03/13 10:36:08;;;;;;;21.40;14.60;;;;;;;;;;6202121;23;20148;-54
2022/03/13 10:38:34;;;;;;;22.70;15.20;;;;;;;;;;6202584;23;20441;-54
2022/03/13 10:41:01;;;;;;;25.27;17.23;;;;;;;;;;6204477;23;20375;-54
2022/03/13 10:43:29;;;;;;;23.90;15.50;;;;;;;;;;6204178;23;20375;-55
2022/03/13 10:45:56;;;;;;;23.27;14.43;;;;;;;;;;6205467;23;20379;-55
2022/03/13 10:48:42;;;;;;;20.60;14.30;;;;;;;;;;6204744;23;20372;-54
2022/03/13 10:51:08;;;;;;;22.77;15.77;;;;;;;;;;6201404;23;20462;-54
2022/03/13 10:53:34;;;;;;;23.87;15.80;;;;;;;;;;6203165;23;20379;-56
2022/03/13 10:56:00;;;;;;;23.20;15.70;;;;;;;;;;6203035;23;20359;-55
2022/03/13 10:58:34;;;;;;;21.70;14.50;;;;;;;;;;6203458;23;20192;-55
2022/03/13 11:01:09;;;;;;;23.23;13.53;;;;;;;;;;6204542;23;21085;-54
2022/03/13 11:03:56;;;;;;;24.33;16.80;;;;;;;;;;6204739;23;20382;-54
2022/03/13 11:06:23;;;;;;;21.53;15.43;;;;;;;;;;6204279;23;20359;-54
2022/03/13 11:08:53;;;;;;;20.00;15.17;;;;;;;;;;6203474;23;20375;-54
2022/03/13 11:11:19;;;;;;;25.33;16.20;;;;;;;;;;6203438;23;20378;-55
2022/03/13 11:13:54;;;;;;;25.57;16.77;;;;;;;;;;6202185;23;20406;-54
2022/03/13 11:16:23;;;;;;;21.33;14.57;;;;;;;;;;6203145;23;20440;-55
2022/03/13 11:18:51;;;;;;;24.67;15.27;;;;;;;;;;6203859;23;20431;-55
2022/03/13 11:21:17;;;;;;;24.40;16.50;;;;;;;;;;6203470;23;20375;-55
2022/03/13 11:23:44;;;;;;;19.80;14.77;;;;;;;;;;6205410;23;20470;-54
2022/03/13 11:26:10;;;;;;;25.17;15.60;;;;;;;;;;6205505;23;20202;-55
2022/03/13 11:28:38;;;;;;;23.80;16.40;;;;;;;;;;6205094;23;20825;-60
2022/03/13 11:31:05;;;;;;;27.17;15.83;;;;;;;;;;6207239;23;20375;-54
2022/03/13 11:33:33;;;;;;;24.23;15.20;;;;;;;;;;6181297;23;20387;-54
2022/03/13 11:36:17;;;;;;;22.60;16.00;;;;;;;;;;6208645;23;20437;-54
2022/03/13 11:38:59;;;;;;;24.50;15.33;;;;;;;;;;6208444;23;20454;-55
2022/03/13 11:41:35;;;;;;;21.67;16.87;;;;;;;;;;6209351;23;20488;-53
2022/03/13 11:44:20;;;;;;;29.57;17.40;;;;;;;;;;6209697;23;20375;-55
2022/03/13 11:46:47;;;;;;;24.07;17.30;;;;;;;;;;6208045;23;20375;-55
2022/03/13 11:49:15;;;;;;;24.47;19.23;;;;;;;;;;6209588;23;20368;-55
2022/03/13 11:51:42;;;;;;;27.27;18.50;;;;;;;;;;6207740;23;20459;-55
2022/03/13 11:54:08;;;;;;;28.00;18.77;;;;;;;;;;6208592;23;20697;-54
2022/03/13 11:56:40;;;;;;;21.43;17.50;;;;;;;;;;6207717;23;20899;-55
2022/03/13 11:59:17;;;;;;;26.53;19.20;;;;;;;;;;6204666;23;20191;-55
2022/03/13 12:01:43;;;;;;;24.80;19.10;;;;;;;;;;6206501;23;20371;-55
2022/03/13 12:04:14;;;;;;;26.93;19.10;;;;;;;;;;6206194;23;20364;-54
2022/03/13 12:06:48;;;;;;;26.00;18.50;;;;;;;;;;6204927;23;20368;-55
2022/03/13 12:09:14;;;;;;;26.87;20.27;;;;;;;;;;6205060;23;20370;-55
2022/03/13 12:11:46;;;;;;;26.97;19.70;;;;;;;;;;6205250;23;20372;-55
2022/03/13 12:14:13;;;;;;;24.27;18.40;;;;;;;;;;6204783;23;20379;-55
2022/03/13 12:16:39;;;;;;;24.67;17.00;;;;;;;;;;6204088;23;20398;-55
2022/03/13 12:19:05;;;;;;;25.43;19.33;;;;;;;;;;6204512;23;20431;-55
2022/03/13 12:21:32;;;;;;;24.50;18.77;;;;;;;;;;6203298;23;20376;-54
2022/03/13 12:24:13;;;;;;;27.43;18.93;;;;;;;;;;6204283;23;20380;-55
2022/03/13 12:26:39;;;;;;;24.10;17.30;;;;;;;;;;6203541;23;20494;-55
2022/03/13 12:29:07;;;;;;;23.40;17.80;;;;;;;;;;6202874;23;20379;-56
2022/03/13 12:31:40;;;;;;;22.53;18.00;;;;;;;;;;6204255;23;20372;-56
2022/03/13 12:34:06;;;;;;;20.60;17.67;;;;;;;;;;6204260;23;20694;-54
2022/03/13 12:36:36;;;;;;;23.93;18.57;;;;;;;;;;6205379;23;20379;-55
2022/03/13 12:39:02;;;;;;;22.87;18.73;;;;;;;;;;6204700;23;20446;-55
2022/03/13 12:41:29;;;;;;;23.40;18.10;;;;;;;;;;6202689;23;20835;-55
2022/03/13 12:43:59;;;;;;;25.07;17.87;;;;;;;;;;6203376;23;20454;-55
2022/03/13 12:46:25;;;;;;;23.80;18.60;;;;;;;;;;6203503;23;20458;-55
2022/03/13 12:48:54;;;;;;;25.40;18.43;;;;;;;;;;6203952;23;20383;-55
2022/03/13 12:51:34;;;;;;;21.03;16.83;;;;;;;;;;6203680;23;20407;-56
2022/03/13 12:54:00;;;;;;;24.43;18.90;;;;;;;;;;6200454;23;20771;-55
2022/03/13 12:56:29;;;;;;;23.20;17.27;;;;;;;;;;6204050;23;20364;-57
2022/03/13 12:58:55;;;;;;;23.30;18.13;;;;;;;;;;6201945;23;20437;-54
2022/03/13 13:01:21;;;;;;;25.50;17.23;;;;;;;;;;6203711;23;20455;-55
2022/03/13 13:03:53;;;;;;;25.93;18.80;;;;;;;;;;6203549;23;20152;-55
2022/03/13 13:06:29;;;;;;;23.50;18.70;;;;;;;;;;6203081;23;20865;-55
2022/03/13 13:08:55;;;;;;;26.93;18.20;;;;;;;;;;6202873;23;20370;-55
2022/03/13 13:11:31;;;;;;;21.83;18.13;;;;;;;;;;6202738;23;20616;-55
2022/03/13 13:13:57;;;;;;;22.63;17.60;;;;;;;;;;6202231;23;20403;-55
2022/03/13 13:16:23;;;;;;;24.10;19.00;;;;;;;;;;6202675;23;20482;-55
2022/03/13 13:18:49;;;;;;;27.77;19.40;;;;;;;;;;6202197;23;21088;-56
2022/03/13 13:21:15;;;;;;;23.40;18.60;;;;;;;;;;6203509;23;20419;-55
2022/03/13 13:23:41;;;;;;;22.00;17.33;;;;;;;;;;6203477;23;20144;-56
2022/03/13 13:26:07;;;;;;;19.47;17.27;;;;;;;;;;6204530;23;20149;-55
2022/03/13 13:28:34;;;;;;;20.53;16.40;;;;;;;;;;6203434;23;20384;-55
2022/03/13 13:31:00;;;;;;;21.80;17.10;;;;;;;;;;6204283;23;20429;-55
2022/03/13 13:33:30;;;;;;;22.00;18.07;;;;;;;;;;6202252;23;20415;-55
2022/03/13 13:35:56;;;;;;;21.13;17.27;;;;;;;;;;6203307;23;20514;-55
2022/03/13 13:38:28;;;;;;;22.53;16.97;;;;;;;;;;6201646;23;20933;-57
2022/03/13 13:40:57;;;;;;;22.53;15.90;;;;;;;;;;6202524;23;20446;-55
2022/03/13 13:43:28;;;;;;;25.03;17.97;;;;;;;;;;6200775;23;20468;-55
2022/03/13 13:46:04;;;;;;;29.57;17.70;;;;;;;;;;6203095;23;20376;-54
2022/03/13 13:48:31;;;;;;;22.97;15.40;;;;;;;;;;6202500;23;20447;-55
2022/03/13 13:51:19;;;;;;;19.03;13.17;;;;;;;;;;6202629;23;20376;-54
2022/03/13 13:54:06;;;;;;;22.60;15.30;;;;;;;;;;6202922;23;20402;-53
2022/03/13 13:56:40;;;;;;;17.87;12.80;;;;;;;;;;6187147;23;20403;-54
2022/03/13 13:59:15;;;;;;;19.93;14.50;;;;;;;;;;6202341;23;21013;-54
2022/03/13 14:01:43;;;;;;;26.33;13.90;;;;;;;;;;6200943;23;20806;-54
2022/03/13 14:04:09;;;;;;;21.47;13.43;;;;;;;;;;6202182;23;20360;-54
2022/03/13 14:06:35;;;;;;;20.93;14.20;;;;;;;;;;6202655;23;20375;-54
2022/03/13 14:09:02;;;;;;;17.00;13.23;;;;;;;;;;6202289;23;20368;-54
2022/03/13 14:11:28;;;;;;;24.73;14.87;;;;;;;;;;6203008;23;20379;-55
2022/03/13 14:13:54;;;;;;;24.67;15.17;;;;;;;;;;6203271;23;20627;-55
2022/03/13 14:16:20;;;;;;;19.53;15.00;;;;;;;;;;6203260;23;20441;-58
2022/03/13 14:18:46;;;;;;;21.70;13.70;;;;;;;;;;6203223;23;20430;-55
2022/03/13 14:21:13;;;;;;;20.57;13.20;;;;;;;;;;6203523;23;20387;-54
2022/03/13 14:23:39;;;;;;;20.13;12.80;;;;;;;;;;6202957;23;20383;-55